Time;durP1;ratioP1;P1;durP2;ratioP2;P2;SDS_P1;SDS_P2;PMS_P1;PMS_P2;Temp;Humidity;BMP_temperature;BMP_pressure;BME280_temperature;BME280_humidity;BME280_pressure;Samples;Min_cycle;Max_cycle;Signal;HPM_P1;HPM_P2
2023/06/11 00:02:11;;;;;;;9.32;4.68;;;18.80;99.90;;;;;;5040214;28;20045;-90
2023/06/11 00:04:38;;;;;;;11.30;4.40;;;18.70;99.90;;;;;;5056515;28;20187;-90
2023/06/11 00:07:05;;;;;;;8.65;4.80;;;18.70;99.90;;;;;;5040230;28;20099;-91
2023/06/11 00:09:32;;;;;;;8.63;4.80;;;18.60;99.90;;;;;;5056068;28;20098;-91
2023/06/11 00:11:59;;;;;;;9.48;4.53;;;18.60;99.90;;;;;;5072747;28;20396;-91
2023/06/11 00:14:25;;;;;;;13.57;5.15;;;18.50;99.90;;;;;;5067256;28;20555;-91
2023/06/11 00:16:56;;;;;;;10.73;5.35;;;18.50;99.90;;;;;;5040000;28;20040;-91
2023/06/11 00:19:28;;;;;;;11.25;5.00;;;18.50;99.90;;;;;;5046763;28;20127;-90
2023/06/11 00:21:56;;;;;;;9.82;5.00;;;18.50;99.90;;;;;;5077281;28;20560;-91
2023/06/11 00:24:23;;;;;;;9.50;5.20;;;18.40;99.90;;;;;;5075556;28;20045;-91
2023/06/11 00:26:50;;;;;;;11.57;4.85;;;18.40;99.90;;;;;;5075571;28;20082;-91
2023/06/11 00:29:17;;;;;;;13.73;5.25;;;18.30;99.90;;;;;;5075864;28;20060;-91
2023/06/11 00:31:43;;;;;;;14.23;5.40;;;18.30;99.90;;;;;;5075382;28;20087;-90
2023/06/11 00:34:10;;;;;;;12.02;5.25;;;18.30;99.90;;;;;;5075799;28;20043;-90
2023/06/11 00:36:40;;;;;;;9.57;5.05;;;18.30;99.90;;;;;;5062108;28;20086;-91
2023/06/11 00:39:06;;;;;;;10.35;4.90;;;18.20;99.90;;;;;;5093102;28;20044;-91
2023/06/11 00:41:34;;;;;;;13.30;5.30;;;18.20;99.90;;;;;;5072345;28;20063;-91
2023/06/11 00:44:02;;;;;;;11.15;5.35;;;18.20;99.90;;;;;;5055911;28;20040;-91
2023/06/11 00:46:31;;;;;;;11.80;5.38;;;18.20;99.90;;;;;;5039836;28;20084;-91
2023/06/11 00:48:58;;;;;;;17.23;6.38;;;18.20;99.90;;;;;;5039708;28;20067;-91
2023/06/11 00:51:25;;;;;;;10.23;5.72;;;18.10;99.90;;;;;;5050081;28;20044;-90
2023/06/11 00:53:53;;;;;;;9.55;5.28;;;18.10;99.90;;;;;;5092646;28;20557;-91
2023/06/11 00:56:20;;;;;;;9.48;6.28;;;18.10;99.90;;;;;;5059601;28;20082;-91
2023/06/11 00:58:49;;;;;;;10.35;5.45;;;18.10;99.90;;;;;;5092192;28;20036;-90
2023/06/11 01:01:25;;;;;;;14.02;6.18;;;18.10;99.90;;;;;;5092007;28;20546;-90
2023/06/11 01:03:56;;;;;;;12.85;6.30;;;18.00;99.90;;;;;;5092039;28;20044;-90
2023/06/11 01:06:28;;;;;;;8.60;5.72;;;18.00;99.90;;;;;;5071969;28;20041;-90
2023/06/11 01:08:58;;;;;;;8.63;5.47;;;18.00;99.90;;;;;;5072571;28;20769;-91
2023/06/11 01:11:27;;;;;;;8.10;5.97;;;18.00;99.90;;;;;;5093890;28;20043;-88
2023/06/11 01:13:54;;;;;;;14.45;6.57;;;17.90;99.90;;;;;;5091715;28;20041;-91
2023/06/11 01:16:37;;;;;;;8.95;5.55;;;17.90;99.90;;;;;;5065938;28;20040;-91
2023/06/11 01:19:18;;;;;;;13.20;6.47;;;17.90;99.90;;;;;;5071590;28;20505;-91
2023/06/11 01:21:53;;;;;;;10.18;5.88;;;17.90;99.90;;;;;;5071724;28;20032;-91
2023/06/11 01:24:48;;;;;;;10.85;6.13;;;17.80;99.90;;;;;;5072261;28;20041;-92
2023/06/11 01:27:42;;;;;;;10.80;6.20;;;17.80;99.90;;;;;;5070711;28;20144;-90
2023/06/11 01:30:17;;;;;;;9.82;5.68;;;17.80;99.90;;;;;;5072146;28;20053;-90
2023/06/11 01:32:56;;;;;;;10.55;6.10;;;17.80;99.90;;;;;;5083777;28;20409;-91
2023/06/11 01:35:23;;;;;;;10.15;5.97;;;17.80;99.90;;;;;;5091709;28;20036;-91
2023/06/11 01:37:55;;;;;;;10.93;6.00;;;17.80;99.90;;;;;;5091242;28;20097;-90
2023/06/11 01:40:25;;;;;;;9.75;6.30;;;17.80;99.90;;;;;;5060310;28;20453;-90
2023/06/11 01:42:53;;;;;;;11.73;6.03;;;17.70;99.90;;;;;;5059154;28;20122;-91
2023/06/11 01:45:21;;;;;;;9.15;5.82;;;17.70;99.90;;;;;;5058926;28;20039;-91
2023/06/11 01:48:01;;;;;;;9.13;6.13;;;17.70;99.90;;;;;;5163060;27;1350063;-89
2023/06/11 01:50:28;;;;;;;9.57;6.22;;;17.70;99.90;;;;;;5156067;27;20070;-89
2023/06/11 01:52:55;;;;;;;8.45;6.43;;;17.60;99.90;;;;;;5148021;27;20089;-90
2023/06/11 01:55:22;;;;;;;8.32;6.07;;;17.60;99.90;;;;;;5118659;27;20041;-89
2023/06/11 01:57:49;;;;;;;10.02;5.82;;;17.50;99.90;;;;;;5135132;27;20039;-88
2023/06/11 02:00:16;;;;;;;10.27;6.10;;;17.50;99.90;;;;;;5118082;27;20042;-90
2023/06/11 02:02:46;;;;;;;10.07;6.28;;;17.40;99.90;;;;;;5118713;27;20542;-90
2023/06/11 02:05:13;;;;;;;11.50;6.65;;;17.40;99.90;;;;;;5135620;28;20039;-89
2023/06/11 02:07:40;;;;;;;12.35;6.50;;;17.30;99.90;;;;;;5131275;28;20066;-89
2023/06/11 02:10:07;;;;;;;10.88;6.10;;;17.30;99.90;;;;;;5115408;28;20035;-89
2023/06/11 02:12:35;;;;;;;14.15;6.25;;;17.20;99.90;;;;;;5114244;28;20118;-86
2023/06/11 02:15:01;;;;;;;10.88;6.80;;;17.20;99.90;;;;;;5098693;28;20054;-90
2023/06/11 02:17:28;;;;;;;9.45;5.80;;;17.20;99.90;;;;;;5114399;28;20418;-90
2023/06/11 02:19:55;;;;;;;9.68;6.32;;;17.20;99.90;;;;;;5097500;28;20043;-89
2023/06/11 02:22:21;;;;;;;9.80;6.57;;;17.10;99.90;;;;;;5097865;28;20044;-89
2023/06/11 02:24:48;;;;;;;9.35;6.47;;;17.10;99.90;;;;;;5141830;27;20031;-90
2023/06/11 02:27:15;;;;;;;11.45;6.95;;;17.00;99.90;;;;;;5117385;27;20092;-89
2023/06/11 02:29:42;;;;;;;9.85;6.05;;;17.00;99.90;;;;;;5117360;27;20035;-89
2023/06/11 02:32:10;;;;;;;8.68;6.55;;;16.90;99.90;;;;;;5117675;27;20035;-89
2023/06/11 02:34:36;;;;;;;11.18;6.53;;;16.90;99.90;;;;;;5134875;27;20042;-85
2023/06/11 02:37:03;;;;;;;10.27;6.45;;;16.90;99.90;;;;;;5117442;27;20034;-90
2023/06/11 02:39:30;;;;;;;10.43;6.70;;;16.90;99.90;;;;;;5117249;27;20053;-90
2023/06/11 02:41:56;;;;;;;11.07;6.63;;;16.80;99.90;;;;;;5134047;27;20053;-89
2023/06/11 02:44:23;;;;;;;10.63;6.88;;;16.80;99.90;;;;;;5116882;27;20042;-90
2023/06/11 02:46:50;;;;;;;10.18;6.45;;;16.80;99.90;;;;;;5150535;27;20047;-90
2023/06/11 02:49:17;;;;;;;10.43;7.03;;;16.80;99.90;;;;;;5134688;27;20039;-90
2023/06/11 02:51:44;;;;;;;9.50;6.70;;;16.70;99.90;;;;;;5133490;27;20050;-89
2023/06/11 02:54:10;;;;;;;9.27;6.78;;;16.70;99.90;;;;;;5150792;27;20175;-90
2023/06/11 02:56:37;;;;;;;11.07;6.93;;;16.70;99.90;;;;;;5098788;28;20073;-90
2023/06/11 02:59:04;;;;;;;11.38;7.03;;;16.70;99.90;;;;;;5083966;28;20484;-89
2023/06/11 03:01:30;;;;;;;9.93;7.45;;;16.70;99.90;;;;;;5082952;28;20543;-89
2023/06/11 03:03:57;;;;;;;11.40;7.72;;;16.70;99.90;;;;;;5100021;28;20399;-90
2023/06/11 03:06:24;;;;;;;9.85;7.07;;;16.70;99.90;;;;;;5126204;27;20047;-89
2023/06/11 03:08:53;;;;;;;11.40;7.20;;;16.70;99.90;;;;;;5119679;27;20066;-89
2023/06/11 03:11:19;;;;;;;13.50;7.18;;;16.70;99.90;;;;;;5108442;28;20040;-90
2023/06/11 03:13:46;;;;;;;10.80;7.10;;;16.70;99.90;;;;;;5099080;28;20530;-90
2023/06/11 03:16:13;;;;;;;13.07;7.20;;;16.80;99.90;;;;;;5120186;27;20035;-90
2023/06/11 03:18:41;;;;;;;10.32;7.35;;;16.70;99.90;;;;;;5120762;27;20181;-90
2023/06/11 03:21:08;;;;;;;11.30;8.13;;;16.80;99.90;;;;;;5120139;27;20031;-89
2023/06/11 03:23:34;;;;;;;11.30;7.28;;;16.70;99.90;;;;;;5120138;27;20107;-90
2023/06/11 03:26:01;;;;;;;12.10;7.55;;;16.70;99.90;;;;;;5103284;27;20039;-89
2023/06/11 03:28:28;;;;;;;14.82;7.25;;;16.80;99.90;;;;;;5103491;27;20126;-90
2023/06/11 03:30:54;;;;;;;19.95;7.53;;;16.80;99.90;;;;;;5119812;27;20042;-90
2023/06/11 03:33:21;;;;;;;12.32;7.22;;;16.80;99.90;;;;;;5103982;27;20037;-90
2023/06/11 03:35:48;;;;;;;12.07;7.53;;;16.80;99.90;;;;;;5103473;27;20035;-90
2023/06/11 03:38:14;;;;;;;9.77;7.43;;;16.80;99.90;;;;;;5119667;27;20113;-89
2023/06/11 03:40:41;;;;;;;13.82;7.20;;;16.80;99.90;;;;;;5103376;27;20043;-89
2023/06/11 03:43:08;;;;;;;9.40;6.85;;;16.80;99.90;;;;;;5103471;27;20046;-90
2023/06/11 03:45:34;;;;;;;11.93;7.85;;;16.80;99.90;;;;;;5119420;27;20039;-89
2023/06/11 03:48:04;;;;;;;10.27;7.38;;;16.80;99.90;;;;;;5086691;28;20106;-89
2023/06/11 03:50:30;;;;;;;11.60;7.65;;;16.80;99.90;;;;;;5093223;28;20040;-89
2023/06/11 03:52:57;;;;;;;11.48;7.93;;;16.80;99.90;;;;;;5092170;28;20047;-90
2023/06/11 03:55:24;;;;;;;10.88;7.45;;;16.80;99.90;;;;;;5091964;28;20032;-90
2023/06/11 03:57:51;;;;;;;13.70;8.43;;;16.80;99.90;;;;;;5080898;28;20135;-89
2023/06/11 04:00:17;;;;;;;11.38;8.63;;;16.80;99.90;;;;;;5112085;28;20047;-90
2023/06/11 04:02:44;;;;;;;12.13;7.40;;;16.90;99.90;;;;;;5112140;28;20492;-90
2023/06/11 04:05:11;;;;;;;12.23;7.70;;;16.90;99.90;;;;;;5111993;28;20043;-89
2023/06/11 04:07:40;;;;;;;12.75;7.63;;;16.90;99.90;;;;;;5094174;28;20047;-90
2023/06/11 04:10:07;;;;;;;10.88;7.78;;;16.90;99.90;;;;;;5090281;28;20036;-90
2023/06/11 04:12:34;;;;;;;12.25;7.40;;;16.90;99.90;;;;;;5091691;28;20055;-90
2023/06/11 04:15:02;;;;;;;10.80;7.50;;;16.90;99.90;;;;;;5091274;28;20043;-89
2023/06/11 04:17:29;;;;;;;13.25;8.38;;;16.90;99.90;;;;;;5075000;28;20107;-89
2023/06/11 04:19:55;;;;;;;10.60;7.97;;;16.90;99.90;;;;;;5091220;28;20123;-90
2023/06/11 04:22:22;;;;;;;14.93;8.52;;;17.00;99.90;;;;;;5092931;28;20043;-90
2023/06/11 04:24:49;;;;;;;13.07;8.00;;;17.00;99.90;;;;;;5091174;28;20043;-90
2023/06/11 04:27:17;;;;;;;10.35;8.00;;;17.00;99.90;;;;;;5074580;28;20044;-89
2023/06/11 04:29:44;;;;;;;11.88;7.30;;;17.00;99.90;;;;;;5092227;28;20123;-90
2023/06/11 04:32:11;;;;;;;12.10;8.07;;;17.10;99.90;;;;;;5091191;28;20072;-89
2023/06/11 04:34:38;;;;;;;12.75;7.88;;;17.10;99.90;;;;;;5092260;28;20032;-90
2023/06/11 04:37:09;;;;;;;10.48;7.25;;;17.10;99.90;;;;;;5090775;28;20489;-90
2023/06/11 04:39:36;;;;;;;12.43;8.20;;;17.10;99.90;;;;;;5075078;28;20055;-88
2023/06/11 04:42:02;;;;;;;12.07;7.78;;;17.20;99.90;;;;;;5111701;28;20039;-89
2023/06/11 04:44:29;;;;;;;12.18;7.65;;;17.20;99.90;;;;;;5111248;28;20443;-89
2023/06/11 04:46:56;;;;;;;11.57;8.18;;;17.20;99.90;;;;;;5114630;28;20090;-90
2023/06/11 04:49:23;;;;;;;8.25;7.18;;;17.30;99.90;;;;;;5114939;28;20047;-90
2023/06/11 04:51:52;;;;;;;12.07;7.47;;;17.30;99.90;;;;;;5131778;28;20039;-90
2023/06/11 04:54:21;;;;;;;9.88;7.65;;;17.30;99.90;;;;;;5095970;28;20100;-89
2023/06/11 04:56:48;;;;;;;11.75;7.85;;;17.30;99.90;;;;;;5110959;28;20036;-90
2023/06/11 04:59:15;;;;;;;10.80;7.15;;;17.40;99.90;;;;;;5095236;28;20102;-90
2023/06/11 05:01:46;;;;;;;12.65;7.15;;;17.40;99.90;;;;;;5111817;28;20036;-89
2023/06/11 05:04:14;;;;;;;11.95;7.30;;;17.40;99.90;;;;;;5078867;28;20054;-90
2023/06/11 05:06:47;;;;;;;12.85;7.13;;;17.50;99.90;;;;;;5113999;28;20044;-90
2023/06/11 05:09:14;;;;;;;9.77;6.85;;;17.50;99.90;;;;;;5125954;28;20068;-90
2023/06/11 05:11:44;;;;;;;10.00;7.30;;;17.60;99.90;;;;;;5110349;28;20073;-89
2023/06/11 05:14:12;;;;;;;8.88;6.55;;;17.50;99.90;;;;;;5093848;28;20043;-90
2023/06/11 05:16:39;;;;;;;10.50;7.20;;;17.70;99.90;;;;;;5094049;28;20046;-90
2023/06/11 05:19:06;;;;;;;11.15;6.85;;;17.70;99.90;;;;;;5105617;28;20036;-90
2023/06/11 05:21:33;;;;;;;10.20;6.93;;;17.80;99.90;;;;;;5131014;28;20042;-89
2023/06/11 05:24:07;;;;;;;8.98;6.35;;;17.80;99.90;;;;;;5114124;28;20039;-90
2023/06/11 05:26:37;;;;;;;8.77;6.55;;;17.90;99.90;;;;;;5114888;28;20039;-90
2023/06/11 05:29:04;;;;;;;10.15;6.50;;;18.00;99.90;;;;;;5113038;28;20067;-89
2023/06/11 05:31:31;;;;;;;10.48;6.82;;;18.00;99.90;;;;;;5113872;28;20813;-89
2023/06/11 05:33:58;;;;;;;11.98;6.65;;;18.10;99.90;;;;;;5114117;28;20075;-90
2023/06/11 05:36:26;;;;;;;11.23;6.40;;;18.10;99.90;;;;;;5113706;28;20050;-90
2023/06/11 05:38:52;;;;;;;13.30;6.82;;;18.20;99.90;;;;;;5113442;28;20070;-89
2023/06/11 05:41:20;;;;;;;19.30;6.10;;;18.20;99.90;;;;;;5097335;28;20074;-89
2023/06/11 05:43:47;;;;;;;7.95;6.07;;;18.30;99.90;;;;;;5114036;28;20051;-89
2023/06/11 05:46:14;;;;;;;13.82;6.05;;;18.40;99.90;;;;;;5132049;28;20487;-90
2023/06/11 05:48:43;;;;;;;12.95;6.32;;;18.40;99.90;;;;;;5134449;28;20130;-89
2023/06/11 05:51:10;;;;;;;9.82;6.00;;;18.50;99.90;;;;;;5116118;28;20157;-89
2023/06/11 05:53:37;;;;;;;9.27;5.85;;;18.50;99.90;;;;;;5100894;28;20486;-89
2023/06/11 05:56:04;;;;;;;9.57;5.95;;;18.70;99.90;;;;;;5100922;28;20042;-89
2023/06/11 05:58:33;;;;;;;11.75;5.55;;;18.70;99.90;;;;;;5134458;28;20045;-90
2023/06/11 06:01:03;;;;;;;9.90;5.90;;;18.80;99.90;;;;;;5133308;28;20039;-89
2023/06/11 06:03:31;;;;;;;9.40;5.60;;;18.90;99.90;;;;;;5117477;28;20050;-88
2023/06/11 06:05:59;;;;;;;12.75;6.10;;;18.90;99.90;;;;;;5134292;28;20031;-90
2023/06/11 06:08:27;;;;;;;8.60;5.35;;;19.00;99.90;;;;;;5133589;28;20039;-90
2023/06/11 06:10:55;;;;;;;10.07;5.88;;;19.10;99.90;;;;;;5133659;28;20132;-89
2023/06/11 06:13:28;;;;;;;10.50;5.53;;;19.10;99.90;;;;;;5097661;28;20123;-90
2023/06/11 06:15:55;;;;;;;10.88;5.53;;;19.20;99.90;;;;;;5097070;28;20043;-89
2023/06/11 06:18:22;;;;;;;9.43;5.93;;;19.30;99.90;;;;;;5097082;28;20172;-90
2023/06/11 06:20:49;;;;;;;8.55;5.57;;;19.30;99.90;;;;;;5106312;28;20039;-90
2023/06/11 06:23:16;;;;;;;8.93;5.72;;;19.40;99.90;;;;;;5099887;28;20046;-88
2023/06/11 06:25:43;;;;;;;9.73;5.72;;;19.50;99.90;;;;;;5133795;28;20488;-89
2023/06/11 06:28:10;;;;;;;11.63;5.20;;;19.60;99.90;;;;;;5117095;28;20403;-91
2023/06/11 06:30:38;;;;;;;9.05;5.10;;;19.80;99.90;;;;;;5114427;28;20050;-90
2023/06/11 06:33:05;;;;;;;8.10;4.97;;;19.90;99.90;;;;;;5102270;27;20042;-88
2023/06/11 06:35:32;;;;;;;7.28;5.30;;;19.90;99.90;;;;;;5120977;27;20035;-90
2023/06/11 06:38:00;;;;;;;9.57;5.40;;;20.10;99.90;;;;;;5120839;27;20043;-91
2023/06/11 06:40:27;;;;;;;11.90;5.72;;;20.10;99.90;;;;;;5120451;27;20109;-83
2023/06/11 06:42:54;;;;;;;9.18;5.05;;;20.30;99.90;;;;;;5137160;27;20049;-88
2023/06/11 06:45:21;;;;;;;7.63;5.10;;;20.40;99.90;;;;;;5120431;27;20430;-91
2023/06/11 06:47:47;;;;;;;9.45;5.57;;;20.50;99.90;;;;;;5106098;27;20110;-89
2023/06/11 06:50:14;;;;;;;8.40;5.40;;;20.60;99.90;;;;;;5125294;27;20031;-89
2023/06/11 06:52:41;;;;;;;8.48;4.95;;;20.70;99.90;;;;;;5119407;27;20050;-92
2023/06/11 06:55:08;;;;;;;10.88;5.03;;;20.80;99.90;;;;;;5115417;28;20467;-92
2023/06/11 06:57:35;;;;;;;9.90;5.65;;;20.90;99.90;;;;;;5114425;27;20123;-88
2023/06/11 07:00:04;;;;;;;12.48;5.35;;;21.00;99.90;;;;;;5098332;28;20471;-89
2023/06/11 07:02:31;;;;;;;7.40;5.05;;;21.10;99.90;;;;;;5109666;27;20044;-90
2023/06/11 07:04:57;;;;;;;10.60;5.60;;;21.30;99.90;;;;;;5103251;27;20038;-90
2023/06/11 07:07:24;;;;;;;10.10;5.43;;;21.40;99.90;;;;;;5099093;28;20044;-90
2023/06/11 07:09:51;;;;;;;7.40;5.13;;;21.40;99.90;;;;;;5083658;28;20036;-90
2023/06/11 07:12:21;;;;;;;9.80;5.68;;;21.50;99.90;;;;;;5121722;27;20050;-84
2023/06/11 07:14:48;;;;;;;8.95;5.10;;;21.60;99.90;;;;;;5120292;27;20403;-86
2023/06/11 07:17:15;;;;;;;10.23;5.50;;;21.70;99.90;;;;;;5119606;27;20039;-88
2023/06/11 07:19:42;;;;;;;12.38;5.40;;;21.80;99.90;;;;;;5119952;27;20120;-89
2023/06/11 07:22:08;;;;;;;15.68;5.78;;;21.90;99.90;;;;;;5103221;27;20042;-90
2023/06/11 07:24:35;;;;;;;9.38;5.15;;;22.00;99.90;;;;;;5102939;27;20518;-89
2023/06/11 07:27:02;;;;;;;9.77;5.32;;;22.20;99.90;;;;;;5119627;27;20613;-90
2023/06/11 07:29:29;;;;;;;8.65;5.38;;;22.20;99.90;;;;;;5114675;27;20072;-91
2023/06/11 07:31:56;;;;;;;10.60;5.50;;;22.40;99.90;;;;;;5119650;27;20428;-90
2023/06/11 07:34:22;;;;;;;7.03;4.93;;;22.50;99.90;;;;;;5102771;27;20398;-90
2023/06/11 07:36:49;;;;;;;8.80;5.13;;;22.60;99.90;;;;;;5119802;27;20801;-90
2023/06/11 07:39:17;;;;;;;7.22;4.55;;;22.70;99.90;;;;;;5153885;27;20100;-89
2023/06/11 07:41:43;;;;;;;9.73;5.40;;;22.80;99.90;;;;;;5103740;27;20047;-89
2023/06/11 07:44:10;;;;;;;10.10;5.00;;;22.90;99.90;;;;;;5108917;28;20050;-90
2023/06/11 07:46:37;;;;;;;8.95;5.00;;;23.00;99.90;;;;;;5082499;28;20050;-92
2023/06/11 07:49:07;;;;;;;7.47;4.72;;;23.10;99.90;;;;;;5102108;27;20065;-91
2023/06/11 07:51:33;;;;;;;10.02;5.20;;;23.10;99.90;;;;;;5137018;27;20035;-90
2023/06/11 07:54:00;;;;;;;7.32;5.43;;;23.20;99.90;;;;;;5096176;27;20501;-91
2023/06/11 07:56:27;;;;;;;8.23;4.82;;;23.30;99.90;;;;;;5101893;27;20042;-86
2023/06/11 07:58:54;;;;;;;10.38;5.82;;;23.40;99.90;;;;;;5150963;27;20038;-85
2023/06/11 08:01:21;;;;;;;10.40;5.05;;;23.40;99.90;;;;;;5118611;27;20039;-86
2023/06/11 08:03:48;;;;;;;7.40;4.70;;;23.40;99.90;;;;;;5110149;27;20528;-86
2023/06/11 08:06:15;;;;;;;9.80;5.40;;;23.60;99.90;;;;;;5132516;27;20529;-89
2023/06/11 08:08:42;;;;;;;7.88;5.10;;;23.70;99.90;;;;;;5103539;27;20035;-89
2023/06/11 08:11:08;;;;;;;8.63;5.30;;;23.80;99.90;;;;;;5120460;28;20036;-88
2023/06/11 08:13:35;;;;;;;13.05;5.60;;;23.90;99.90;;;;;;5081862;28;20039;-89
2023/06/11 08:16:02;;;;;;;8.98;5.10;;;24.00;99.90;;;;;;5099239;27;20035;-90
2023/06/11 08:18:29;;;;;;;10.50;5.30;;;24.10;99.90;;;;;;5126047;28;20506;-89
2023/06/11 08:20:56;;;;;;;9.20;5.32;;;24.10;99.90;;;;;;5115699;28;20132;-89
2023/06/11 08:23:23;;;;;;;9.95;5.03;;;24.20;99.90;;;;;;5100935;27;20044;-88
2023/06/11 08:25:50;;;;;;;9.38;4.90;;;24.40;99.90;;;;;;5118150;27;20109;-89
2023/06/11 08:28:16;;;;;;;10.80;5.13;;;24.40;99.90;;;;;;5101945;27;20074;-89
2023/06/11 08:30:43;;;;;;;7.60;5.10;;;24.50;99.90;;;;;;5101458;27;20513;-89
2023/06/11 08:33:11;;;;;;;10.02;5.10;;;24.60;99.90;;;;;;5118040;27;20129;-88
2023/06/11 08:35:38;;;;;;;10.30;5.30;;;24.80;99.90;;;;;;5134868;27;20035;-89
2023/06/11 08:38:05;;;;;;;7.60;4.88;;;24.90;99.90;;;;;;5101605;27;20042;-88
2023/06/11 08:40:42;;;;;;;7.88;4.70;;;25.00;99.90;;;;;;5119201;27;20487;-88
2023/06/11 08:43:10;;;;;;;8.27;5.20;;;25.10;99.90;;;;;;5120381;28;20051;-88
2023/06/11 08:45:37;;;;;;;8.68;5.05;;;25.30;99.90;;;;;;5098479;28;20040;-89
2023/06/11 08:48:05;;;;;;;10.27;5.15;;;25.30;99.90;;;;;;5115021;28;20048;-90
2023/06/11 08:50:32;;;;;;;10.10;5.45;;;25.40;99.90;;;;;;5105789;28;20555;-89
2023/06/11 08:53:08;;;;;;;8.45;5.15;;;25.50;99.90;;;;;;5120978;27;20062;-89
2023/06/11 08:55:39;;;;;;;8.40;5.10;;;25.60;99.90;;;;;;5127919;28;20031;-88
2023/06/11 08:58:05;;;;;;;7.93;5.53;;;25.70;99.90;;;;;;5127923;27;20035;-88
2023/06/11 09:00:32;;;;;;;9.43;5.32;;;25.90;99.90;;;;;;5132068;28;20054;-88
2023/06/11 09:03:00;;;;;;;10.43;4.70;;;26.00;99.90;;;;;;5097403;28;20511;-90
2023/06/11 09:05:27;;;;;;;7.57;5.05;;;26.10;99.90;;;;;;5105716;27;20035;-89
2023/06/11 09:07:55;;;;;;;8.68;5.15;;;26.10;99.90;;;;;;5103914;27;20069;-89
2023/06/11 09:10:22;;;;;;;8.40;5.10;;;26.30;99.90;;;;;;5097743;27;20031;-88
2023/06/11 09:12:49;;;;;;;9.27;4.90;;;26.30;99.90;;;;;;5094848;28;20046;-90
2023/06/11 09:15:20;;;;;;;10.00;5.15;;;26.50;99.90;;;;;;5098629;28;20039;-89
2023/06/11 09:17:47;;;;;;;9.00;4.90;;;26.60;99.90;;;;;;5097515;28;20082;-90
2023/06/11 09:20:15;;;;;;;8.30;5.40;;;26.70;99.90;;;;;;5099488;27;20071;-88
2023/06/11 09:22:44;;;;;;;9.93;5.05;;;26.80;99.90;;;;;;5118486;27;20722;-90
2023/06/11 09:25:19;;;;;;;7.18;4.63;;;26.90;99.90;;;;;;5135122;27;20043;-89
2023/06/11 09:27:47;;;;;;;10.25;4.72;;;27.00;99.90;;;;;;5134244;27;20047;-89
2023/06/11 09:30:18;;;;;;;8.30;4.93;;;27.20;99.90;;;;;;5133436;27;20043;-89
2023/06/11 09:32:48;;;;;;;7.25;5.10;;;27.20;99.90;;;;;;5118829;28;20123;-89
2023/06/11 09:35:15;;;;;;;12.25;4.72;;;27.30;99.90;;;;;;5125400;28;20035;-89
2023/06/11 09:37:47;;;;;;;8.98;5.38;;;27.40;99.90;;;;;;5107016;28;20093;-88
2023/06/11 09:40:20;;;;;;;12.85;5.32;;;27.50;99.90;;;;;;5122291;27;20371;-89
2023/06/11 09:42:48;;;;;;;8.57;5.25;;;27.60;99.90;;;;;;5118080;28;20492;-92
2023/06/11 09:45:17;;;;;;;8.45;4.80;;;27.70;99.90;;;;;;5097300;28;20046;-91
2023/06/11 09:47:45;;;;;;;8.90;5.28;;;27.80;99.90;;;;;;5109813;28;20091;-91
2023/06/11 09:50:16;;;;;;;8.05;4.22;;;27.90;99.90;;;;;;5112089;28;20479;-91
2023/06/11 09:52:44;;;;;;;8.23;4.72;;;27.90;99.90;;;;;;5129608;28;20082;-92
2023/06/11 09:55:12;;;;;;;7.30;4.68;;;28.00;99.90;;;;;;5100313;28;20067;-86
2023/06/11 09:57:40;;;;;;;10.75;5.22;;;28.00;99.70;;;;;;5102724;28;20040;-86
2023/06/11 10:00:09;;;;;;;8.88;4.90;;;28.10;99.50;;;;;;5120390;28;20242;-85
2023/06/11 10:02:41;;;;;;;10.77;5.05;;;28.10;99.20;;;;;;5098144;28;20028;-84
2023/06/11 10:05:09;;;;;;;7.90;4.55;;;28.30;99.30;;;;;;5128351;28;20050;-86
2023/06/11 10:08:00;;;;;;;9.60;4.57;;;28.40;99.20;;;;;;5124430;28;20046;-85
2023/06/11 10:10:27;;;;;;;8.35;4.60;;;28.40;98.10;;;;;;5133743;28;20092;-86
2023/06/11 10:12:55;;;;;;;8.23;4.95;;;28.50;98.80;;;;;;5133865;28;20048;-86
2023/06/11 10:15:25;;;;;;;5.95;4.60;;;28.50;98.70;;;;;;5117295;28;20035;-82
2023/06/11 10:17:54;;;;;;;7.85;4.45;;;28.70;98.30;;;;;;5101851;28;20086;-83
2023/06/11 10:20:27;;;;;;;9.35;4.35;;;28.80;98.50;;;;;;5111021;28;20050;-83
2023/06/11 10:23:05;;;;;;;9.95;4.93;;;28.80;97.90;;;;;;5136593;28;20055;-83
2023/06/11 10:25:37;;;;;;;7.93;4.82;;;28.90;97.10;;;;;;5098882;28;20032;-83
2023/06/11 10:28:05;;;;;;;8.68;4.47;;;29.00;98.60;;;;;;5131311;28;20043;-83
2023/06/11 10:30:32;;;;;;;10.38;4.47;;;29.10;98.40;;;;;;5125803;28;20039;-83
2023/06/11 10:32:59;;;;;;;5.80;4.40;;;29.30;98.20;;;;;;5119844;28;20040;-83
2023/06/11 10:35:29;;;;;;;9.20;4.82;;;29.30;97.90;;;;;;5123444;28;20399;-83
2023/06/11 10:38:04;;;;;;;8.15;4.72;;;29.30;97.00;;;;;;5132770;28;20038;-82
2023/06/11 10:40:32;;;;;;;7.40;4.85;;;29.40;95.70;;;;;;5124997;28;20114;-82
2023/06/11 10:42:59;;;;;;;9.80;4.60;;;29.50;96.90;;;;;;5117294;28;20890;-82
2023/06/11 10:45:37;;;;;;;6.93;4.70;;;29.60;97.30;;;;;;5102768;28;20040;-82
2023/06/11 10:48:04;;;;;;;6.85;3.90;;;29.70;94.70;;;;;;5106297;28;20405;-83
2023/06/11 10:50:31;;;;;;;9.13;4.22;;;29.80;96.10;;;;;;5081690;28;20444;-83
2023/06/11 10:53:05;;;;;;;8.48;4.75;;;29.90;96.00;;;;;;5083393;28;20089;-83
2023/06/11 10:55:34;;;;;;;7.53;4.03;;;29.90;95.30;;;;;;5081615;28;20047;-82
2023/06/11 10:58:01;;;;;;;6.53;4.50;;;30.00;94.80;;;;;;5082253;28;20412;-83
2023/06/11 11:00:32;;;;;;;6.05;4.18;;;30.00;94.70;;;;;;5081002;28;20120;-82
2023/06/11 11:03:04;;;;;;;9.00;4.32;;;30.00;94.30;;;;;;5084997;28;20109;-82
2023/06/11 11:05:31;;;;;;;6.30;4.07;;;30.20;93.60;;;;;;5114073;28;20075;-82
2023/06/11 11:08:01;;;;;;;7.70;4.30;;;30.10;93.80;;;;;;5090668;28;20109;-82
2023/06/11 11:10:28;;;;;;;5.78;4.00;;;30.30;93.50;;;;;;5080364;28;20043;-80
2023/06/11 11:12:56;;;;;;;7.65;4.30;;;30.30;93.40;;;;;;5094044;28;20552;-82
2023/06/11 11:15:22;;;;;;;8.73;4.60;;;30.40;93.00;;;;;;5088960;28;20043;-82
2023/06/11 11:17:50;;;;;;;8.27;4.50;;;30.40;93.30;;;;;;5122711;28;20036;-82
2023/06/11 11:20:18;;;;;;;7.95;4.57;;;30.50;92.90;;;;;;5098576;28;20044;-81
2023/06/11 11:22:51;;;;;;;8.38;4.05;;;30.50;92.50;;;;;;5096785;28;20454;-82
2023/06/11 11:25:29;;;;;;;7.45;4.30;;;30.60;91.60;;;;;;5095221;28;20126;-81
2023/06/11 11:27:56;;;;;;;6.18;4.45;;;30.60;91.90;;;;;;5110573;28;20043;-81
2023/06/11 11:30:28;;;;;;;7.80;4.38;;;30.50;91.80;;;;;;5094354;28;20044;-81
2023/06/11 11:32:56;;;;;;;7.03;4.35;;;30.50;91.80;;;;;;5087214;28;20044;-81
2023/06/11 11:35:23;;;;;;;7.45;4.20;;;30.60;91.90;;;;;;5078034;28;20044;-81
2023/06/11 11:37:51;;;;;;;8.52;4.43;;;30.70;91.90;;;;;;5074283;28;20036;-81
2023/06/11 11:40:21;;;;;;;6.03;4.20;;;30.70;92.00;;;;;;5081492;28;20044;-81
2023/06/11 11:42:54;;;;;;;7.65;4.30;;;30.70;91.70;;;;;;5095022;28;20044;-81
2023/06/11 11:45:32;;;;;;;6.53;4.53;;;30.70;90.50;;;;;;5127929;28;20047;-81
2023/06/11 11:48:00;;;;;;;6.75;4.20;;;30.60;90.70;;;;;;5104190;28;20048;-80
2023/06/11 11:50:30;;;;;;;7.65;4.50;;;30.60;90.70;;;;;;5105626;28;20204;-80
2023/06/11 11:53:28;;;;;;;;;;;;;;;;;;;;;
2023/06/11 11:55:58;;;;;;;8.30;4.65;;;30.60;89.80;;;;;;5144164;28;20043;-80
2023/06/11 11:58:24;;;;;;;6.63;4.60;;;30.70;90.60;;;;;;5077456;28;20043;-80
2023/06/11 12:00:54;;;;;;;7.05;4.70;;;30.70;90.30;;;;;;5076916;28;20040;-80
2023/06/11 12:03:23;;;;;;;8.38;4.72;;;30.50;90.80;;;;;;5110404;28;20075;-80
2023/06/11 12:05:58;;;;;;;6.20;4.43;;;30.20;90.90;;;;;;5114063;28;20040;-82
2023/06/11 12:08:26;;;;;;;6.28;4.70;;;30.00;89.50;;;;;;5118878;28;20028;-79
2023/06/11 12:10:52;;;;;;;8.00;4.68;;;30.00;90.40;;;;;;5137147;28;20560;-80
2023/06/11 12:13:19;;;;;;;5.93;4.28;;;30.20;90.40;;;;;;5110617;28;20036;-79
2023/06/11 12:15:46;;;;;;;7.30;4.57;;;30.30;90.10;;;;;;5118595;28;20031;-80
2023/06/11 12:18:13;;;;;;;6.53;4.30;;;30.40;90.20;;;;;;5108155;28;20405;-81
2023/06/11 12:20:40;;;;;;;8.75;4.70;;;30.40;90.40;;;;;;5097078;28;20042;-80
2023/06/11 12:23:07;;;;;;;7.13;4.68;;;30.50;90.30;;;;;;5082964;28;20373;-81
2023/06/11 12:25:34;;;;;;;8.20;4.40;;;30.70;90.00;;;;;;5106829;28;20457;-80
2023/06/11 12:28:00;;;;;;;10.65;5.00;;;30.80;89.40;;;;;;5125971;28;20039;-81
2023/06/11 12:30:31;;;;;;;10.57;4.75;;;30.80;90.00;;;;;;5128203;28;20525;-81
2023/06/11 12:32:58;;;;;;;6.38;4.47;;;30.80;90.00;;;;;;5076920;28;20396;-81
2023/06/11 12:35:28;;;;;;;11.50;4.72;;;30.90;90.20;;;;;;5106832;28;20036;-81
2023/06/11 12:37:55;;;;;;;6.32;4.82;;;31.00;89.40;;;;;;5124364;28;20484;-81
2023/06/11 12:40:23;;;;;;;9.18;4.47;;;30.80;89.50;;;;;;5096773;28;20062;-81
2023/06/11 12:42:56;;;;;;;7.00;4.53;;;30.50;90.00;;;;;;5130058;28;20423;-80
2023/06/11 12:45:24;;;;;;;7.03;4.47;;;30.30;89.80;;;;;;5114269;28;20043;-80
2023/06/11 12:47:51;;;;;;;6.82;4.38;;;30.40;89.60;;;;;;5126250;28;20057;-80
2023/06/11 12:50:18;;;;;;;7.55;4.35;;;30.40;89.10;;;;;;5093045;28;20051;-81